Create Custom Reports and Graphics: Custom Report

Belmont 8000'

Squaw Valley

2/24/24 1:45 AM (-08:00)
Updated Every 15 Minutes
Temp 27.8 °F   2.5
RH 79 %   7
Dew Pt 22.2 °F   4.6
Wet Bulb 25.7 °F   3.1
Wind Dir NW | 325 °
Wind Spd 2.3 mph   2.3
Wind Gust 3.9 mph   3.3
WindChill 27.0 °F   1.7
Daily Min Temp 27.8 °F   3.1
Daily Max Temp 29.5 °F   2.9
Latest Rain 0.00 In
Daily Rain 0.00 In
New Snow 0.0 in
SnowDepth 154.0 in

Last 24 Hours

OV-Belmont 8000'

Hourly Data | America/Los_Angeles
as of 2/24/24 2:00 AM PST
Date & Time Temp (°F) RH (%) Dew Pt (°F) Wet Bulb (°F) Wind Dir (°) Wind Spd (mph) Wind Gust (mph) WindChill (°F) Latest Rain (In) New Snow (in) SnowDepth (in) Daily Min Temp (°F) Daily Max Temp (°F) Daily Rain (In)
2/24/24 - 0100 28.5 77 22.1 26.0 NNW | 335 1.4 3.4 28.5 0.00 0.0 154.0 27.8 29.5 0.00
2/24/24 - 0000 28.0 77 21.6 25.5 W | 265 1.1 4.1 28.9 0.00 0.0 154.0 23.1 40.7 0.00
2/23/24 - 2300 30.3 72 22.2 27.0 SSW | 192 2.8 5.2 27.9 0.00 0.0 154.0 23.1 40.7 0.00
2/23/24 - 2200 29.6 76 23.1 27.0 SSW | 195 1.8 5.1 28.7 0.00 0.0 154.0 23.1 40.7 0.00
2/23/24 - 2100 28.8 84 24.5 27.0 SSE | 163 1.3 4.7 27.7 0.00 0.0 154.0 23.1 40.7 0.00
2/23/24 - 2000 28.8 84 24.5 27.0 SSE | 157 1.0 5.9 28.5 0.00 0.0 154.0 23.1 40.7 0.00
2/23/24 - 1900 29.0 83 24.4 27.1 SSE | 150 0.7 5.6 29.3 0.00 0.0 154.0 23.1 40.7 0.00
2/23/24 - 1800 30.4 80 24.9 28.1 ESE | 103 2.7 9.0 29.5 0.00 0.0 154.0 23.1 40.7 0.00
2/23/24 - 1700 32.6 72 24.7 29.3 ESE | 122 3.8 9.1 31.3 0.00 0.0 154.0 23.1 40.7 0.00
2/23/24 - 1600 36.3 57 22.6 30.6 SE | 133 2.8 7.2 35.0 0.00 0.0 154.0 23.1 40.7 0.00
2/23/24 - 1500 36.8 54 21.9 30.7 ESE | 123 3.2 9.2 35.2 0.00 0.0 154.0 23.1 40.7 0.00
2/23/24 - 1400 37.2 57 23.4 31.4 ESE | 117 3.6 10.7 36.5 0.00 0.0 154.0 23.1 40.7 0.00
2/23/24 - 1300 38.4 57 24.3 32.3 E | 92 3.8 12.6 33.9 0.00 0.0 154.0 23.1 39.1 0.00
2/23/24 - 1200 33.8 62 22.0 29.0 E | 96 4.6 11.8 30.8 0.00 0.0 154.0 23.1 35.4 0.00
2/23/24 - 1100 34.0 62 22.4 29.3 E | 101 5.1 11.9 29.1 0.00 0.0 154.0 23.1 35.0 0.00
2/23/24 - 1000 33.3 65 22.9 29.0 ESE | 102 3.7 9.6 30.9 0.00 0.0 154.0 23.1 35.0 0.00
2/23/24 - 0900 31.2 72 23.1 28.0 ESE | 113 4.0 11.2 26.1 0.00 0.0 154.0 23.1 31.3 0.00
2/23/24 - 0800 28.0 75 21.2 25.4 ESE | 118 3.5 9.6 23.2 0.00 0.0 154.0 23.1 28.1 0.00
2/23/24 - 0700 25.1 86 21.4 23.7 SE | 129 1.9 6.7 23.6 0.00 0.0 154.0 23.1 27.7 0.00
2/23/24 - 0600 26.9 69 18.1 23.7 S | 191 1.3 6.5 26.5 0.00 0.0 154.0 24.8 27.7 0.00
2/23/24 - 0500 26.2 75 19.5 23.7 SW | 224 0.5 2.7 25.4 0.00 0.0 154.0 24.8 26.6 0.00
2/23/24 - 0400 26.0 72 18.0 23.1 SSW | 207 0.2 1.9 26.1 0.00 0.0 154.0 24.8 26.6 0.00
2/23/24 - 0300 25.9 70 17.6 22.9 NW | 324 0.9 3.5 25.7 0.00 0.0 154.0 24.8 26.6 0.00
2/23/24 - 0200 25.3 66 15.6 21.9 WNW | 299 0.2 2.9 25.2 0.00 0.0 154.0 24.8 26.6 0.00
Max 38.4 86 24.9 32.3 - 5.1 12.6 36.5 0.00 0.0 154.0 27.8 40.7 0.00
Avg 30.4 71 21.9 27.0 - 2.3 7.1 28.9 0.00 - - - - -
Min 25.1 54 15.6 21.9 - 0.2 1.9 23.2 0.00 0.0 154.0 23.1 26.6 0.00
Total - - - - - - - - 0.00 - - - - -

Last 30 Days

OV-Belmont 8000'

Daily Data | America/Los_Angeles
as of 2/24/24 2:00 AM PST
Date Daily Max Temp (°F) Time of Max Temp Daily Min Temp (°F) Time of Min Temp Daily Rain (In) New Snow (in) SnowDepth (in) Wind Spd (mph) Daily Max Wind (mph) Time of Max Wind Max Wind Dir (°) Max RH (%) Min RH (%) Wet Bulb (°F) WetB Hrs <28F (hrs) MinBV Day (V)
2/23/24 40.7 1335 23.1 0634 0.00 0.0 154.0 2.3 12.6 1211 ENE | 70 90 50 26.9 14.7 13.0
2/22/24 40.5 1304 18.6 0440 0.00 0.0 154.0 2.4 15.2 0045 S | 186 100 38 24.2 18.9 13.0
2/21/24 31.0 1157 19.8 2023 1.30 0.0 154.0 7.0 35.6 0733 ESE | 117 100 79 23.7 - 13.0
2/19/24 30.0 0010 24.8 0733 1.48 3.2 154.0 17.6 48.5 0323 NNE | 29 100 92 27.1 19.5 13.1
2/18/24 36.1 1330 25.2 0733 0.59 0.0 154.0 14.7 51.2 2136 NE | 37 100 54 28.4 11.6 13.0
2/17/24 34.3 0756 26.8 2332 0.40 4.8 154.0 13.3 44.3 2100 NE | 40 100 39 27.8 14.1 13.0
2/16/24 40.7 1334 26.1 0359 0.00 0.0 154.0 3.4 19.4 2352 ENE | 66 99 42 28.4 9.7 13.0
2/15/24 28.9 1141 23.3 0059 0.74 0.0 154.0 12.0 46.3 0039 ENE | 66 98 59 24.1 24.0 13.0
2/14/24 27.7 1031 22.9 2328 0.49 7.0 154.0 13.8 46.6 1108 ESE | 115 100 67 24.7 24.0 13.1
2/13/24 36.2 1055 24.8 1929 0.00 0.0 154.0 11.5 30.2 1319 SSW | 195 90 41 24.4 23.4 13.0
2/12/24 47.9 1240 27.8 2331 0.00 0.0 154.0 4.9 16.5 1836 S | 184 82 13 26.2 15.6 13.0
2/11/24 46.4 1347 26.4 0043 0.00 0.0 154.0 2.8 14.2 0630 NW | 324 71 7 26.7 14.4 13.0
2/10/24 30.2 1331 12.8 0348 0.00 0.0 154.0 7.8 25.0 0849 NE | 51 97 8 17.1 24.0 13.1
2/9/24 28.0 1257 13.3 0221 0.00 0.0 154.0 7.7 31.6 2358 NNE | 14 100 66 18.8 24.0 13.1
2/8/24 27.1 1134 14.9 2003 0.08 0.0 154.0 4.2 13.5 1239 S | 174 99 79 19.3 24.0 13.0
2/7/24 21.9 1348 17.6 2057 0.29 0.0 154.0 9.4 29.7 0859 SW | 223 100 91 20.0 24.0 13.1
2/6/24 32.5 1407 19.9 2125 0.08 0.0 154.0 2.1 10.4 0001 SW | 232 100 75 23.5 23.5 13.0
2/5/24 26.9 0115 23.6 1934 0.69 1.1 154.0 13.8 66.4 0103 NE | 39 100 92 24.8 24.0 13.1
2/4/24 30.2 1325 19.6 0036 1.64 5.0 154.0 12.0 58.3 1618 E | 94 100 97 25.1 16.1 13.1
2/3/24 24.9 1222 13.1 0611 0.43 0.0 154.0 6.8 21.4 0226 ENE | 67 98 93 17.8 24.0 13.1
2/2/24 24.4 1208 15.6 2326 0.67 7.1 154.0 9.3 26.6 1838 S | 169 99 95 20.1 24.0 13.1
2/1/24 29.4 0209 19.8 2350 0.91 0.0 154.0 10.3 36.8 0228 SE | 136 100 93 25.0 19.8 13.0
1/31/24 39.0 0007 28.3 1717 0.36 2.9 154.0 19.0 44.5 1344 SE | 140 100 44 30.1 0.0 13.0
1/30/24 47.6 1244 36.7 2200 0.00 0.0 154.0 12.0 34.8 2321 S | 172 86 45 35.6 0.0 12.9
1/29/24 56.0 1248 38.8 0639 0.00 0.0 154.0 3.3 19.4 2355 SW | 219 76 32 37.4 0.0 13.0
1/28/24 59.4 1344 40.3 0623 0.00 0.0 154.0 1.6 16.1 0018 SSW | 213 72 37 38.2 0.0 13.0
1/27/24 49.3 1243 38.8 0529 0.00 0.0 154.0 3.2 15.8 0152 WSW | 246 86 49 38.1 0.0 13.0
1/26/24 41.7 2300 28.0 0021 0.00 0.0 154.0 5.0 18.6 1213 WSW | 252 100 34 32.2 7.7 13.0
1/25/24 34.2 1229 21.2 0732 0.14 0.0 154.0 1.4 19.7 0417 SSW | 197 96 44 25.0 21.1 13.1
Max 59.4 - 40.3 - 1.64 7.1 154.0 19.0 66.4 - - 100 97 38.2 24.0 13.1
Avg - - - - - - - 8.1 - - - - - 26.2 - -
Min 21.9 - 12.8 - 0.00 0.0 154.0 1.4 10.4 - - 71 7 17.1 0.0 12.9
Calm: 0.0%
Calm: 0.0%